Time;durP1;ratioP1;P1;durP2;ratioP2;P2;SDS_P1;SDS_P2;PMS_P1;PMS_P2;Temp;Humidity;BMP_temperature;BMP_pressure;BME280_temperature;BME280_humidity;BME280_pressure;Samples;Min_cycle;Max_cycle;Signal;HPM_P1;HPM_P2
2022/09/17 00:01:18;;;;;;;18.25;2.75;;;;;;;8.97;100.00;101320.78;6126235;23;20006;-79
2022/09/17 00:03:48;;;;;;;24.80;3.15;;;;;;;9.12;100.00;101354.34;6126215;23;20002;-80
2022/09/17 00:06:13;;;;;;;13.07;3.03;;;;;;;9.13;100.00;101350.84;6126098;23;20450;-78
2022/09/17 00:08:40;;;;;;;14.98;2.08;;;;;;;9.00;100.00;101329.19;6126302;23;20009;-80
2022/09/17 00:11:12;;;;;;;14.15;2.80;;;;;;;9.24;100.00;101363.22;6126247;23;20006;-79
2022/09/17 00:13:38;;;;;;;14.18;3.22;;;;;;;9.18;100.00;101351.47;6127090;23;20076;-80
2022/09/17 00:16:04;;;;;;;11.52;2.25;;;;;;;9.17;100.00;101333.50;6128344;23;20010;-79
2022/09/17 00:18:29;;;;;;;13.20;3.15;;;;;;;9.22;100.00;101341.00;6127902;23;20033;-79
2022/09/17 00:20:55;;;;;;;15.05;2.63;;;;;;;9.36;100.00;101357.47;6127989;23;20064;-81
2022/09/17 00:23:20;;;;;;;12.57;2.38;;;;;;;9.35;100.00;101352.41;6127966;23;20328;-77
2022/09/17 00:25:45;;;;;;;14.95;2.75;;;;;;;9.30;100.00;101346.63;6127807;23;20006;-79
2022/09/17 00:28:13;;;;;;;12.88;2.33;;;;;;;9.29;100.00;101353.53;6128095;23;20010;-80
2022/09/17 00:30:43;;;;;;;14.00;2.25;;;;;;;9.38;100.00;101370.28;6128024;23;20062;-80
2022/09/17 00:33:14;;;;;;;11.07;2.10;;;;;;;9.36;100.00;101372.94;6127535;23;20077;-80
2022/09/17 00:35:40;;;;;;;14.05;2.22;;;;;;;9.35;100.00;101368.69;6128295;23;20376;-81
2022/09/17 00:38:05;;;;;;;16.67;2.67;;;;;;;9.33;100.00;101373.06;6127908;23;20065;-81
2022/09/17 00:40:31;;;;;;;11.75;2.35;;;;;;;9.36;100.00;101374.69;6127866;23;20001;-79
2022/09/17 00:42:56;;;;;;;11.80;1.63;;;;;;;9.31;100.00;101367.16;6127978;23;20024;-79
2022/09/17 00:45:22;;;;;;;9.60;2.30;;;;;;;9.22;100.00;101347.00;6127658;23;20500;-79
2022/09/17 00:47:57;;;;;;;13.15;1.98;;;;;;;9.35;100.00;101367.88;6127749;23;20388;-81
2022/09/17 00:50:30;;;;;;;9.75;2.28;;;;;;;9.23;100.00;101352.97;6127991;23;20021;-80
2022/09/17 00:53:04;;;;;;;12.02;2.25;;;;;;;9.38;100.00;101378.00;6127762;23;20007;-79
2022/09/17 00:55:33;;;;;;;14.85;2.97;;;;;;;9.30;100.00;101372.41;6127736;23;20424;-81
2022/09/17 00:58:01;;;;;;;11.55;2.55;;;;;;;9.38;100.00;101384.00;6127707;23;20424;-78
2022/09/17 01:00:29;;;;;;;13.20;1.98;;;;;;;9.40;100.00;101384.75;6127494;23;20516;-81
2022/09/17 01:02:55;;;;;;;14.43;2.13;;;;;;;9.38;100.00;101386.56;6127483;23;20009;-81
2022/09/17 01:05:31;;;;;;;11.35;1.90;;;;;;;9.37;100.00;101384.09;6127562;23;20006;-80
2022/09/17 01:08:08;;;;;;;9.45;1.70;;;;;;;9.33;100.00;101385.13;6127874;23;20005;-79
2022/09/17 01:10:42;;;;;;;11.23;1.90;;;;;;;9.37;100.00;101397.81;6127590;23;20002;-81
2022/09/17 01:13:17;;;;;;;14.35;2.22;;;;;;;9.39;100.00;101388.25;6101622;23;20340;-81
2022/09/17 01:15:53;;;;;;;11.38;1.70;;;;;;;9.39;100.00;101384.84;6127615;23;20011;-80
2022/09/17 01:18:21;;;;;;;12.82;1.75;;;;;;;9.38;100.00;101396.06;6127372;23;20009;-78
2022/09/17 01:21:11;;;;;;;14.35;2.47;;;;;;;9.36;100.00;101410.78;6127526;23;20002;-82
2022/09/17 01:24:11;;;;;;;14.00;2.05;;;;;;;9.37;100.00;101402.97;6127594;23;20014;-79
2022/09/17 01:26:59;;;;;;;13.13;2.25;;;;;;;9.37;100.00;101400.38;6127179;23;20014;-80
2022/09/17 01:29:36;;;;;;;12.48;1.88;;;;;;;9.36;100.00;101403.88;6127315;23;20002;-80
2022/09/17 01:32:16;;;;;;;9.65;2.10;;;;;;;9.34;100.00;101394.53;6127372;23;20009;-80
2022/09/17 01:34:53;;;;;;;16.48;2.50;;;;;;;9.29;100.00;101404.22;6127297;23;20402;-80
2022/09/17 01:37:33;;;;;;;10.88;2.00;;;;;;;9.24;100.00;101411.34;6127530;23;20025;-80
2022/09/17 01:40:23;;;;;;;12.75;2.40;;;;;;;9.22;100.00;101413.16;6127696;23;20001;-79
2022/09/17 01:43:07;;;;;;;11.98;1.98;;;;;;;9.20;100.00;101408.91;6127413;23;20042;-79
2022/09/17 01:45:32;;;;;;;21.33;1.88;;;;;;;9.16;100.00;101409.97;6127582;23;20376;-81
2022/09/17 01:48:11;;;;;;;13.55;2.28;;;;;;;8.99;100.00;101393.66;6127318;23;20096;-77
2022/09/17 01:50:42;;;;;;;9.82;2.03;;;;;;;9.06;100.00;101413.91;6127120;23;20085;-80
2022/09/17 01:53:10;;;;;;;15.60;2.20;;;;;;;9.02;100.00;101419.25;6127546;23;20065;-80
2022/09/17 01:55:39;;;;;;;19.48;2.35;;;;;;;8.96;100.00;101422.13;6127224;23;20053;-79
2022/09/17 01:58:13;;;;;;;15.50;2.20;;;;;;;8.84;100.00;101400.34;6127146;23;20010;-80
2022/09/17 02:00:44;;;;;;;11.93;1.83;;;;;;;8.91;100.00;101412.88;6127324;23;20002;-79
2022/09/17 02:03:31;;;;;;;16.20;2.00;;;;;;;8.87;100.00;101411.34;6127179;23;20009;-79
2022/09/17 02:06:11;;;;;;;14.52;2.50;;;;;;;8.79;100.00;101400.56;6127230;23;20002;-79
2022/09/17 02:09:03;;;;;;;11.85;2.17;;;;;;;8.89;100.00;101411.28;6127244;23;20033;-80
2022/09/17 02:11:35;;;;;;;11.32;1.60;;;;;;;8.95;100.00;101417.88;5981187;24;20040;-79
2022/09/17 02:14:09;;;;;;;;;;;;;;;8.96;100.00;101417.81;5981857;24;20032;-78
2022/09/17 02:16:39;;;;;;;8.68;1.75;;;;;;;8.90;100.00;101400.91;5981308;24;19910;-80
2022/09/17 02:19:07;;;;;;;13.93;2.20;;;;;;;9.02;100.00;101414.94;5981219;24;20424;-80
2022/09/17 02:21:54;;;;;;;15.35;2.00;;;;;;;9.00;100.00;101408.19;5980910;24;20518;-77
2022/09/17 02:24:24;;;;;;;14.85;1.80;;;;;;;9.06;100.00;101410.50;5980855;24;20042;-80
2022/09/17 02:27:01;;;;;;;12.55;2.00;;;;;;;8.96;100.00;101401.53;5981043;24;20102;-79
2022/09/17 02:29:56;;;;;;;14.43;2.50;;;;;;;9.03;100.00;101416.59;5981411;24;20016;-79
2022/09/17 02:32:21;;;;;;;10.07;1.98;;;;;;;9.01;100.00;101417.59;5898344;24;20016;-79
2022/09/17 02:34:46;;;;;;;18.55;2.28;;;;;;;8.86;100.00;101401.97;5898023;24;20425;-80
2022/09/17 02:37:12;;;;;;;8.65;1.60;;;;;;;8.77;100.00;101386.09;5897983;24;20468;-78
2022/09/17 02:39:37;;;;;;;8.13;2.05;;;;;;;8.73;100.00;101392.28;5898274;24;20014;-80
2022/09/17 02:42:22;;;;;;;9.88;2.60;;;;;;;8.86;100.00;101424.31;5898175;24;20020;-80
2022/09/17 02:45:23;;;;;;;9.65;1.80;;;;;;;8.63;100.00;101399.59;5898336;24;20318;-81
2022/09/17 02:48:12;;;;;;;13.00;1.92;;;;;;;8.82;100.00;101427.91;5925657;23;20083;-76
2022/09/17 02:51:16;;;;;;;7.88;2.00;;;;;;;8.84;100.00;101423.53;6008889;23;20008;-78
2022/09/17 02:53:54;;;;;;;11.93;1.70;;;;;;;8.69;100.00;101398.50;5902083;24;20339;-81
2022/09/17 02:56:47;;;;;;;15.07;1.80;;;;;;;8.95;100.00;101426.47;5925661;24;20070;-77
2022/09/17 02:59:20;;;;;;;11.02;1.95;;;;;;;9.00;100.00;101415.94;5925595;24;20009;-80
2022/09/17 03:01:55;;;;;;;19.17;2.25;;;;;;;9.13;100.00;101428.16;5925510;24;20013;-78
2022/09/17 03:04:23;;;;;;;13.65;1.80;;;;;;;9.15;100.00;101425.53;5925486;24;20013;-77
2022/09/17 03:06:52;;;;;;;10.30;1.85;;;;;;;9.16;100.00;101422.88;5925004;24;20088;-80
2022/09/17 03:09:17;;;;;;;17.25;2.42;;;;;;;9.06;100.00;101413.06;5965599;24;20012;-77
2022/09/17 03:11:42;;;;;;;7.95;1.75;;;;;;;8.98;100.00;101404.88;5980905;24;20015;-80
2022/09/17 03:14:08;;;;;;;10.43;1.55;;;;;;;8.96;100.00;101412.66;5980868;24;20012;-79
2022/09/17 03:16:33;;;;;;;10.13;1.70;;;;;;;8.94;100.00;101429.09;5980756;24;20031;-79
2022/09/17 03:18:58;;;;;;;14.48;2.05;;;;;;;8.85;100.00;101422.63;5980646;24;20015;-78
2022/09/17 03:21:24;;;;;;;10.07;2.10;;;;;;;8.79;100.00;101435.78;5980342;24;20008;-79
2022/09/17 03:23:49;;;;;;;11.82;1.67;;;;;;;8.56;100.00;101400.81;5980570;24;20016;-78
2022/09/17 03:26:14;;;;;;;11.38;1.77;;;;;;;8.61;100.00;101407.38;5980524;24;20103;-79
2022/09/17 03:28:39;;;;;;;14.52;2.40;;;;;;;8.70;100.00;101418.19;5980750;24;20026;-80
2022/09/17 03:31:05;;;;;;;10.93;1.95;;;;;;;8.88;100.00;101436.19;6114994;23;20424;-80
2022/09/17 03:33:31;;;;;;;8.45;1.50;;;;;;;8.93;100.00;101437.72;6126368;23;20056;-78
2022/09/17 03:35:56;;;;;;;8.80;1.48;;;;;;;8.94;100.00;101419.59;6126373;23;20010;-79
2022/09/17 03:38:22;;;;;;;11.77;2.00;;;;;;;8.98;100.00;101422.91;6126259;23;20009;-81
2022/09/17 03:41:05;;;;;;;15.50;2.90;;;;;;;8.85;100.00;101402.88;6126667;23;20002;-78
2022/09/17 03:43:30;;;;;;;10.55;2.65;;;;;;;8.90;100.00;101413.78;6126271;23;20365;-80
2022/09/17 03:45:56;;;;;;;12.27;1.85;;;;;;;8.87;100.00;101413.09;6126661;23;20100;-80
2022/09/17 03:48:22;;;;;;;9.35;1.70;;;;;;;8.83;100.00;101409.81;6127453;23;20018;-80
2022/09/17 03:50:47;;;;;;;10.02;2.03;;;;;;;8.84;100.00;101400.34;6128274;23;20006;-80
2022/09/17 03:53:12;;;;;;;12.45;2.75;;;;;;;8.90;100.00;101402.63;6128194;23;20056;-79
2022/09/17 03:55:38;;;;;;;10.90;1.58;;;;;;;8.76;100.00;101400.72;6128328;23;20384;-80
2022/09/17 03:58:04;;;;;;;10.48;2.22;;;;;;;8.91;100.00;101424.91;6128539;23;20328;-80
2022/09/17 04:00:29;;;;;;;9.80;2.90;;;;;;;8.89;100.00;101429.31;6128292;23;20010;-79
2022/09/17 04:02:54;;;;;;;10.50;1.73;;;;;;;8.86;100.00;101437.19;6128007;23;20010;-80
2022/09/17 04:05:20;;;;;;;8.52;2.05;;;;;;;8.82;100.00;101446.78;6128351;23;20081;-79
2022/09/17 04:07:45;;;;;;;9.55;2.13;;;;;;;8.72;100.00;101435.22;6127984;23;20436;-80
2022/09/17 04:10:10;;;;;;;12.07;2.05;;;;;;;8.50;100.00;101409.63;6101444;23;20006;-79
2022/09/17 04:12:36;;;;;;;7.90;1.80;;;;;;;8.59;100.00;101432.38;6128104;23;20013;-80
2022/09/17 04:15:02;;;;;;;10.63;1.75;;;;;;;8.61;100.00;101448.59;6127965;23;20009;-80
2022/09/17 04:17:27;;;;;;;13.77;2.08;;;;;;;8.46;100.00;101430.44;6127984;23;20037;-79
2022/09/17 04:19:53;;;;;;;9.20;2.10;;;;;;;8.56;100.00;101449.72;6127970;23;20006;-80
2022/09/17 04:22:18;;;;;;;9.65;1.65;;;;;;;8.46;100.00;101435.56;6128138;23;20034;-77
2022/09/17 04:24:44;;;;;;;12.25;2.08;;;;;;;8.57;100.00;101444.50;6127951;23;20006;-79
2022/09/17 04:27:09;;;;;;;13.70;2.60;;;;;;;8.47;100.00;101430.34;6127758;23;20020;-78
2022/09/17 04:29:34;;;;;;;11.85;1.67;;;;;;;8.65;100.00;101456.16;6127988;23;20025;-78
2022/09/17 04:32:00;;;;;;;8.10;1.65;;;;;;;8.59;100.00;101434.13;6127930;23;20006;-79
2022/09/17 04:34:25;;;;;;;10.60;1.60;;;;;;;8.57;100.00;101416.16;6128219;23;20010;-78
2022/09/17 04:36:50;;;;;;;14.55;2.03;;;;;;;8.78;100.00;101449.56;6127697;23;20014;-79
2022/09/17 04:39:16;;;;;;;11.35;2.00;;;;;;;8.80;100.00;101445.19;6127807;23;20006;-79
2022/09/17 04:41:41;;;;;;;13.70;3.05;;;;;;;8.71;100.00;101427.56;6128196;23;20077;-78
2022/09/17 04:44:07;;;;;;;13.77;2.17;;;;;;;8.76;100.00;101454.78;6127977;23;20073;-78
2022/09/17 04:46:32;;;;;;;10.57;2.08;;;;;;;8.70;100.00;101455.06;6127639;23;20033;-78
2022/09/17 04:48:57;;;;;;;9.55;2.15;;;;;;;8.65;100.00;101449.28;6127680;23;20065;-79
2022/09/17 04:51:23;;;;;;;10.98;1.90;;;;;;;8.55;100.00;101445.44;6127921;23;20013;-79
2022/09/17 04:53:48;;;;;;;13.68;1.83;;;;;;;8.42;100.00;101434.03;6127450;23;20010;-78
2022/09/17 04:56:13;;;;;;;11.10;1.58;;;;;;;8.40;100.00;101433.25;6127624;23;20013;-79
2022/09/17 04:58:39;;;;;;;8.57;1.60;;;;;;;8.37;100.00;101449.69;6127538;23;20014;-79
2022/09/17 05:01:04;;;;;;;12.63;2.22;;;;;;;8.22;100.00;101429.72;6127583;23;20368;-79
2022/09/17 05:03:30;;;;;;;10.20;1.98;;;;;;;8.28;100.00;101450.06;6127777;23;20010;-77
2022/09/17 05:05:55;;;;;;;10.82;1.70;;;;;;;8.24;100.00;101453.63;6127550;23;20003;-79
2022/09/17 05:08:22;;;;;;;12.45;2.08;;;;;;;8.20;100.00;101454.69;6127104;23;20056;-77
2022/09/17 05:10:50;;;;;;;13.15;1.70;;;;;;;7.94;100.00;101415.47;6127756;23;20009;-79
2022/09/17 05:13:15;;;;;;;10.68;1.92;;;;;;;8.13;100.00;101451.53;6127650;23;20012;-78
2022/09/17 05:15:41;;;;;;;14.57;2.03;;;;;;;7.93;100.00;101426.66;6127514;23;20042;-80
2022/09/17 05:18:06;;;;;;;9.95;1.75;;;;;;;8.12;100.00;101465.28;6127469;23;20002;-79
2022/09/17 05:20:31;;;;;;;15.30;2.13;;;;;;;8.10;100.00;101461.13;6127885;23;20012;-80
2022/09/17 05:22:57;;;;;;;9.77;2.75;;;;;;;8.06;100.00;101462.97;6127488;23;20073;-80
2022/09/17 05:25:25;;;;;;;15.25;2.10;;;;;;;8.06;100.00;101460.41;6127613;23;20009;-77
2022/09/17 05:27:51;;;;;;;16.73;2.05;;;;;;;7.77;100.00;101428.22;6126926;23;20018;-77
2022/09/17 05:30:17;;;;;;;15.88;2.97;;;;;;;7.97;100.00;101456.50;6127699;23;20017;-77
2022/09/17 05:32:42;;;;;;;10.75;1.80;;;;;;;7.99;100.00;101477.00;6127447;23;20413;-76
2022/09/17 05:35:08;;;;;;;12.98;1.90;;;;;;;7.97;100.00;101481.41;6127426;23;20329;-80
2022/09/17 05:37:34;;;;;;;12.40;1.88;;;;;;;7.95;100.00;101486.56;6127342;23;20006;-79
2022/09/17 05:40:00;;;;;;;19.65;2.05;;;;;;;7.95;100.00;101486.56;6101428;23;20014;-79
2022/09/17 05:42:25;;;;;;;15.95;2.42;;;;;;;7.96;100.00;101483.13;6127381;23;20003;-77
2022/09/17 05:44:50;;;;;;;10.27;1.90;;;;;;;7.99;100.00;101483.00;6127449;23;20006;-79
2022/09/17 05:47:16;;;;;;;14.25;1.77;;;;;;;8.04;100.00;101488.75;6127198;23;20561;-79
2022/09/17 05:49:41;;;;;;;15.48;2.05;;;;;;;7.89;100.00;101453.41;6127187;23;20006;-77
2022/09/17 05:52:06;;;;;;;13.70;2.10;;;;;;;8.23;100.00;101491.41;6127178;23;20435;-80
2022/09/17 05:54:32;;;;;;;8.15;2.00;;;;;;;8.38;100.00;101491.69;6126696;23;20328;-77
2022/09/17 05:56:57;;;;;;;16.00;2.30;;;;;;;8.50;100.00;101486.00;6127242;23;20030;-77
2022/09/17 05:59:22;;;;;;;9.93;2.67;;;;;;;8.51;100.00;101467.91;6127123;23;20002;-81
2022/09/17 06:01:49;;;;;;;11.98;2.78;;;;;;;8.72;100.00;101485.88;6127077;23;20057;-81
2022/09/17 06:04:16;;;;;;;12.55;2.72;;;;;;;8.97;100.00;101507.06;6127012;23;20013;-80
2022/09/17 06:06:42;;;;;;;10.48;1.90;;;;;;;8.94;100.00;101480.59;6126898;23;20437;-76
2022/09/17 06:09:07;;;;;;;9.73;1.77;;;;;;;9.02;100.00;101492.22;6126866;23;20029;-76
2022/09/17 06:11:33;;;;;;;9.63;1.85;;;;;;;9.20;100.00;101501.69;6126506;23;20455;-81
2022/09/17 06:13:59;;;;;;;13.25;1.90;;;;;;;9.18;100.00;101489.78;6127227;23;20331;-79
2022/09/17 06:16:24;;;;;;;7.80;1.60;;;;;;;9.26;100.00;101497.16;6127299;23;20013;-79
2022/09/17 06:18:51;;;;;;;10.90;2.00;;;;;;;9.15;100.00;101477.06;6127285;23;20014;-79
2022/09/17 06:21:18;;;;;;;12.50;2.08;;;;;;;9.19;100.00;101484.56;6127203;23;20002;-77
2022/09/17 06:23:44;;;;;;;9.70;1.98;;;;;;;9.37;100.00;101511.22;6125025;23;20070;-75
2022/09/17 06:26:10;;;;;;;11.27;1.95;;;;;;;9.44;100.00;101506.63;6126816;23;20010;-76
2022/09/17 06:28:35;;;;;;;13.07;1.50;;;;;;;9.76;100.00;101516.22;6126574;23;20060;-78
2022/09/17 06:31:03;;;;;;;8.48;1.40;;;;;;;9.82;100.00;101512.47;6126751;23;20006;-76
2022/09/17 06:33:29;;;;;;;11.45;3.00;;;;;;;9.89;100.00;101513.03;6126876;23;20006;-78
2022/09/17 06:35:59;;;;;;;8.18;1.38;;;;;;;9.93;98.82;101512.81;6126737;23;20088;-78
2022/09/17 06:38:29;;;;;;;5.15;1.10;;;;;;;9.76;98.04;101487.00;6126632;23;20044;-74
2022/09/17 06:40:55;;;;;;;8.02;1.65;;;;;;;9.86;98.70;101515.78;6126805;23;20006;-81
2022/09/17 06:43:21;;;;;;;11.65;1.75;;;;;;;9.91;97.05;101512.03;6126719;23;20498;-77
2022/09/17 06:45:53;;;;;;;4.78;1.27;;;;;;;9.93;97.15;101514.53;6127015;23;20858;-77
2022/09/17 06:48:19;;;;;;;3.35;0.95;;;;;;;9.97;97.88;101521.22;6126566;23;20013;-79
2022/09/17 06:50:44;;;;;;;7.05;1.40;;;;;;;9.85;96.47;101512.34;6126548;23;20328;-77
2022/09/17 06:53:09;;;;;;;7.18;1.35;;;;;;;9.97;97.01;101513.50;6126526;23;20006;-80
2022/09/17 06:55:35;;;;;;;7.15;1.15;;;;;;;10.06;96.71;101510.47;6126637;23;20013;-77
2022/09/17 06:58:00;;;;;;;6.20;1.60;;;;;;;11.07;93.20;101498.31;6126597;23;20428;-76
2022/09/17 07:00:26;;;;;;;7.35;1.20;;;;;;;11.63;89.12;101509.03;6125313;23;19998;-78
2022/09/17 07:02:58;;;;;;;6.90;1.63;;;;;;;11.36;88.90;101509.63;6126483;23;20049;-75
2022/09/17 07:05:24;;;;;;;7.32;1.58;;;;;;;10.95;89.66;101511.91;6126128;23;20002;-73
2022/09/17 07:07:50;;;;;;;6.72;1.30;;;;;;;10.77;92.99;101518.03;6126292;23;20010;-79
2022/09/17 07:10:15;;;;;;;6.90;1.13;;;;;;;10.49;91.80;101505.72;6126099;23;20479;-72
2022/09/17 07:12:41;;;;;;;10.85;1.30;;;;;;;10.30;93.50;101503.25;6126223;23;20002;-75
2022/09/17 07:15:07;;;;;;;4.32;1.13;;;;;;;10.36;92.49;101522.75;6126485;23;20087;-80
2022/09/17 07:17:32;;;;;;;11.23;1.42;;;;;;;10.31;93.90;101528.97;6126325;23;20444;-76
2022/09/17 07:19:57;;;;;;;4.45;1.20;;;;;;;10.29;93.18;101524.81;6126319;23;20005;-76
2022/09/17 07:22:24;;;;;;;8.48;0.93;;;;;;;10.23;94.43;101513.06;6126057;23;20005;-79
2022/09/17 07:24:49;;;;;;;5.32;1.17;;;;;;;10.33;94.41;101518.59;6126290;23;20005;-74
2022/09/17 07:27:14;;;;;;;8.40;1.30;;;;;;;10.30;95.05;101506.66;6125807;23;20088;-80
2022/09/17 07:29:40;;;;;;;10.57;1.23;;;;;;;9.77;95.63;101406.13;6126408;23;20475;-80
2022/09/17 07:32:06;;;;;;;9.30;1.27;;;;;;;10.58;95.11;101533.66;6126587;23;20032;-77
2022/09/17 07:34:31;;;;;;;8.27;1.48;;;;;;;10.71;94.23;101531.25;6126182;23;20081;-77
2022/09/17 07:36:57;;;;;;;6.25;1.17;;;;;;;10.84;93.33;101527.97;6126463;23;20009;-79
2022/09/17 07:39:22;;;;;;;5.45;0.85;;;;;;;11.03;92.79;101530.41;6126301;23;20013;-83
2022/09/17 07:41:47;;;;;;;6.47;1.33;;;;;;;11.08;91.44;101523.22;6126383;23;20336;-73
2022/09/17 07:44:13;;;;;;;5.53;0.90;;;;;;;11.02;90.33;101522.75;6126546;23;20002;-81
2022/09/17 07:46:38;;;;;;;5.82;0.82;;;;;;;10.71;91.23;101472.69;6126140;23;20006;-82
2022/09/17 07:49:03;;;;;;;6.60;1.60;;;;;;;10.95;91.24;101506.72;6126360;23;20048;-76
2022/09/17 07:51:29;;;;;;;6.45;1.20;;;;;;;11.14;91.21;101528.09;6126258;23;20006;-77
2022/09/17 07:53:56;;;;;;;6.68;1.50;;;;;;;11.21;89.22;101520.84;6126569;23;20353;-72
2022/09/17 07:56:23;;;;;;;6.90;1.05;;;;;;;11.05;89.38;101489.81;6126168;23;20002;-85
2022/09/17 07:58:49;;;;;;;6.28;1.20;;;;;;;11.35;90.09;101522.66;6126479;23;20006;-80
2022/09/17 08:01:15;;;;;;;6.85;1.50;;;;;;;11.47;90.67;101527.13;6126356;23;20488;-79
2022/09/17 08:03:42;;;;;;;9.13;1.35;;;;;;;11.62;88.31;101528.88;6126111;23;20002;-76
2022/09/17 08:06:10;;;;;;;6.00;0.90;;;;;;;11.71;87.33;101505.09;6126456;23;20009;-81
2022/09/17 08:08:36;;;;;;;7.93;1.10;;;;;;;11.94;87.27;101526.25;6126446;23;20013;-79
2022/09/17 08:11:07;;;;;;;4.53;1.20;;;;;;;11.91;86.79;101529.03;6125761;23;20009;-77
2022/09/17 08:13:32;;;;;;;6.93;1.15;;;;;;;11.89;83.88;101525.66;6126329;23;20077;-82
2022/09/17 08:16:02;;;;;;;6.63;1.10;;;;;;;11.62;84.75;101490.09;6126185;23;20076;-79
2022/09/17 08:18:28;;;;;;;6.68;0.90;;;;;;;11.63;83.32;101496.91;6126332;23;20013;-78
2022/09/17 08:20:58;;;;;;;7.07;1.25;;;;;;;11.77;85.78;101528.00;6126499;23;20005;-76
2022/09/17 08:23:24;;;;;;;7.40;1.20;;;;;;;11.77;85.09;101534.94;6126120;23;20122;-76
2022/09/17 08:25:56;;;;;;;5.68;1.00;;;;;;;11.63;85.74;101499.50;6125512;23;20393;-76
2022/09/17 08:28:24;;;;;;;7.90;1.00;;;;;;;11.81;85.43;101533.88;6126047;23;20010;-77
2022/09/17 08:30:50;;;;;;;7.00;1.27;;;;;;;11.85;84.49;101531.94;6126192;23;20029;-82
2022/09/17 08:33:16;;;;;;;9.93;1.40;;;;;;;11.92;87.55;101520.34;6126360;23;20009;-81
2022/09/17 08:35:41;;;;;;;7.45;1.02;;;;;;;11.86;84.55;101495.63;6128035;23;20406;-78
2022/09/17 08:38:06;;;;;;;6.55;1.38;;;;;;;12.13;85.40;101524.25;6128200;23;20002;-83
2022/09/17 08:40:39;;;;;;;8.77;1.30;;;;;;;12.23;83.73;101521.97;6127688;23;20712;-82
2022/09/17 08:43:09;;;;;;;7.70;1.30;;;;;;;12.28;83.31;101525.09;6127872;23;20002;-77
2022/09/17 08:45:34;;;;;;;10.40;1.63;;;;;;;12.32;83.74;101504.13;6127862;23;20006;-82
2022/09/17 08:48:04;;;;;;;9.05;1.65;;;;;;;12.50;81.57;101516.91;6127656;23;20014;-82
2022/09/17 08:50:31;;;;;;;6.10;1.42;;;;;;;12.76;81.57;101523.94;6128043;23;20034;-84
2022/09/17 08:53:01;;;;;;;8.43;1.20;;;;;;;13.14;80.91;101525.91;6127955;23;20006;-80
2022/09/17 08:55:28;;;;;;;5.43;1.05;;;;;;;13.55;77.38;101531.09;6127600;23;20009;-76
2022/09/17 08:58:25;;;;;;;8.02;1.23;;;;;;;13.64;75.75;101532.28;6127466;23;20017;-84
2022/09/17 09:01:15;;;;;;;8.98;0.93;;;;;;;13.41;75.06;101542.38;6127906;23;20006;-80
2022/09/17 09:04:01;;;;;;;10.13;1.27;;;;;;;13.11;74.92;101531.31;6127568;23;20085;-80
2022/09/17 09:06:32;;;;;;;5.07;1.48;;;;;;;12.87;76.26;101510.31;6127636;23;20037;-81
2022/09/17 09:09:11;;;;;;;5.57;0.80;;;;;;;12.71;78.34;101515.63;6127884;23;20013;-82
2022/09/17 09:11:37;;;;;;;4.18;0.90;;;;;;;12.38;75.22;101546.13;6127040;23;20002;-81
2022/09/17 09:14:13;;;;;;;7.88;1.05;;;;;;;12.15;77.42;101550.91;6127492;23;20086;-80
2022/09/17 09:16:41;;;;;;;3.13;0.85;;;;;;;11.96;81.40;101530.41;6127683;23;20006;-81
2022/09/17 09:19:32;;;;;;;4.18;0.95;;;;;;;12.08;80.28;101534.03;6127824;23;20013;-82
2022/09/17 09:22:04;;;;;;;5.90;0.88;;;;;;;12.46;79.94;101547.34;6127493;23;20328;-81
2022/09/17 09:24:42;;;;;;;6.30;1.00;;;;;;;12.79;75.84;101543.66;6127398;23;20010;-83
2022/09/17 09:27:22;;;;;;;3.85;0.98;;;;;;;13.16;76.88;101543.03;6126751;23;20010;-84
2022/09/17 09:30:06;;;;;;;5.60;0.80;;;;;;;13.66;74.58;101552.00;6127769;23;20383;-84
2022/09/17 09:32:50;;;;;;;3.83;0.60;;;;;;;13.86;74.81;101553.31;6127256;23;20006;-83
2022/09/17 09:35:19;;;;;;;4.60;0.68;;;;;;;13.81;70.50;101555.38;6127190;23;20009;-83
2022/09/17 09:37:55;;;;;;;2.75;0.65;;;;;;;13.81;72.90;101546.78;6127765;23;20033;-85
2022/09/17 09:40:39;;;;;;;3.75;0.70;;;;;;;13.46;72.34;101516.13;6127181;23;20017;-80
2022/09/17 09:43:16;;;;;;;3.80;0.80;;;;;;;13.66;71.42;101551.19;6126970;23;20006;-82
2022/09/17 09:45:59;;;;;;;2.72;0.68;;;;;;;13.75;71.38;101556.59;6127057;23;20009;-81
2022/09/17 09:48:39;;;;;;;4.50;1.30;;;;;;;13.90;73.66;101554.78;6127262;23;20010;-81
2022/09/17 09:51:29;;;;;;;5.13;0.80;;;;;;;14.02;74.71;101558.34;6127124;23;20429;-83
2022/09/17 09:54:09;;;;;;;9.20;1.30;;;;;;;13.95;72.34;101557.91;6127122;23;20006;-82
2022/09/17 09:56:56;;;;;;;5.05;0.80;;;;;;;13.70;72.32;101524.09;6126987;23;20010;-80
2022/09/17 09:59:22;;;;;;;5.97;0.68;;;;;;;13.71;74.18;101541.34;6127020;23;20006;-79
2022/09/17 10:01:47;;;;;;;5.63;0.85;;;;;;;13.60;74.46;101552.41;6127311;23;20470;-77
2022/09/17 10:04:20;;;;;;;8.15;1.40;;;;;;;13.59;73.45;101553.34;6127194;23;20013;-82
2022/09/17 10:06:48;;;;;;;4.43;0.90;;;;;;;13.63;70.30;101541.00;6127099;23;20005;-74
2022/09/17 10:09:16;;;;;;;4.28;0.80;;;;;;;13.76;71.91;101544.47;6127056;23;20006;-73
2022/09/17 10:11:43;;;;;;;6.10;0.88;;;;;;;13.89;69.70;101532.38;6127000;23;20002;-74
2022/09/17 10:14:24;;;;;;;6.05;0.82;;;;;;;14.50;70.45;101556.03;6126931;23;20052;-74
2022/09/17 10:17:10;;;;;;;3.58;1.08;;;;;;;14.70;69.21;101555.50;6126792;23;20001;-73
2022/09/17 10:19:36;;;;;;;6.13;1.25;;;;;;;14.44;65.75;101559.00;6127264;23;20080;-74
2022/09/17 10:22:18;;;;;;;8.77;1.00;;;;;;;14.20;70.78;101561.50;6126538;23;20416;-75
2022/09/17 10:24:45;;;;;;;5.95;0.98;;;;;;;13.43;71.77;101480.84;6127133;23;20424;-77
2022/09/17 10:27:16;;;;;;;6.70;1.50;;;;;;;13.80;74.06;101556.31;6126344;23;20014;-75
2022/09/17 10:29:44;;;;;;;6.60;1.10;;;;;;;13.55;75.28;101546.69;6126927;23;20005;-74
2022/09/17 10:32:18;;;;;;;5.55;1.10;;;;;;;13.41;76.34;101544.16;6127075;23;20013;-74
2022/09/17 10:34:58;;;;;;;4.30;0.98;;;;;;;13.22;77.58;101522.88;6126818;23;20064;-75
2022/09/17 10:37:31;;;;;;;6.82;1.17;;;;;;;13.27;78.52;101520.81;6126637;23;20077;-74
2022/09/17 10:39:57;;;;;;;5.55;0.95;;;;;;;13.40;79.52;101534.69;6126787;23;20006;-76
2022/09/17 10:42:22;;;;;;;7.88;0.98;;;;;;;13.39;77.53;101530.44;6126473;23;20448;-74
2022/09/17 10:44:56;;;;;;;4.88;1.17;;;;;;;13.20;78.12;101497.88;6126689;23;20076;-75
2022/09/17 10:47:36;;;;;;;3.63;0.60;;;;;;;13.04;75.53;101496.31;6126824;23;20011;-79
2022/09/17 10:50:07;;;;;;;3.25;0.70;;;;;;;13.09;74.26;101521.03;6126503;23;20034;-74
2022/09/17 10:52:41;;;;;;;3.63;0.77;;;;;;;13.15;74.22;101517.22;6126402;23;19998;-75
2022/09/17 10:55:41;;;;;;;4.55;0.70;;;;;;;13.30;76.24;101539.63;6126677;23;20006;-73
2022/09/17 10:58:07;;;;;;;4.00;0.82;;;;;;;13.35;74.36;101539.31;5980400;23;20382;-75
2022/09/17 11:01:07;;;;;;;5.28;0.90;;;;;;;13.59;73.83;101532.59;5980915;24;20011;-74
2022/09/17 11:03:45;;;;;;;4.65;0.82;;;;;;;14.26;71.82;101533.34;5958034;24;20008;-73
2022/09/17 11:06:43;;;;;;;4.65;0.85;;;;;;;14.69;70.48;101533.06;5980789;24;20399;-79
2022/09/17 11:09:26;;;;;;;2.55;0.85;;;;;;;14.82;69.71;101536.47;5980864;24;20012;-73
2022/09/17 11:12:14;;;;;;;7.20;1.10;;;;;;;14.64;68.20;101545.53;5980869;24;20039;-75
2022/09/17 11:15:01;;;;;;;4.57;1.13;;;;;;;14.54;68.82;101528.91;5980582;24;20438;-76
2022/09/17 11:18:05;;;;;;;6.68;0.88;;;;;;;14.45;69.38;101522.56;5980610;24;20008;-72
2022/09/17 11:20:54;;;;;;;4.90;0.68;;;;;;;14.30;68.96;101515.78;5979636;23;20015;-72
2022/09/17 11:23:44;;;;;;;3.47;0.70;;;;;;;14.15;69.09;101517.63;5980497;24;20136;-72
2022/09/17 11:26:34;;;;;;;2.42;0.80;;;;;;;14.21;71.42;101516.41;5980166;24;20371;-77
2022/09/17 11:29:22;;;;;;;4.82;0.70;;;;;;;14.33;69.15;101516.41;5980354;24;20012;-76
2022/09/17 11:31:59;;;;;;;5.07;0.73;;;;;;;14.44;67.98;101512.25;5979052;24;20380;-76
2022/09/17 11:34:45;;;;;;;5.65;0.98;;;;;;;14.51;66.74;101521.31;6095230;23;20089;-78
2022/09/17 11:37:24;;;;;;;4.80;1.05;;;;;;;14.34;70.36;101523.25;6126202;23;20089;-74
2022/09/17 11:39:59;;;;;;;6.63;1.13;;;;;;;14.37;71.27;101519.63;6126452;23;20006;-72